Time;durP1;ratioP1;P1;durP2;ratioP2;P2;SDS_P1;SDS_P2;PMS_P1;PMS_P2;Temp;Humidity;BMP_temperature;BMP_pressure;BME280_temperature;BME280_humidity;BME280_pressure;Samples;Min_cycle;Max_cycle;Signal;HPM_P1;HPM_P2
2023/07/18 00:02:01;;;;;;;0.00;0.00;;;;;;;;;;5042117;28;20121;-88
2023/07/18 00:04:29;;;;;;;0.00;0.00;;;12.70;99.90;;;;;;5036906;28;20025;-87
2023/07/18 00:06:55;;;;;;;0.00;0.00;;;12.90;99.90;;;;;;5031497;28;20362;-88
2023/07/18 00:09:22;;;;;;;0.00;0.00;;;12.70;99.90;;;;;;5031165;28;20035;-88
2023/07/18 00:11:47;;;;;;;0.00;0.00;;;12.70;99.90;;;;;;5033688;28;20028;-87
2023/07/18 00:14:15;;;;;;;0.00;0.00;;;;;;;;;;5031969;28;20110;-88
2023/07/18 00:16:41;;;;;;;0.00;0.00;;;12.90;99.90;;;;;;5035734;28;20025;-88
2023/07/18 00:19:09;;;;;;;0.00;0.00;;;12.80;99.90;;;;;;5035016;28;20032;-88
2023/07/18 00:21:35;;;;;;;0.00;0.00;;;12.80;99.90;;;;;;5027315;28;20032;-87
2023/07/18 00:24:01;;;;;;;0.00;0.00;;;12.80;99.90;;;;;;5039197;28;20025;-89
2023/07/18 00:26:26;;;;;;;0.00;0.00;;;12.70;99.90;;;;;;5033381;28;20017;-88
2023/07/18 00:28:53;;;;;;;0.00;0.00;;;;;;;;;;5038709;28;20035;-88
2023/07/18 00:31:19;;;;;;;0.00;0.00;;;12.50;99.90;;;;;;5035445;28;20025;-88
2023/07/18 00:33:44;;;;;;;0.10;0.10;;;12.60;99.90;;;;;;5034299;28;20047;-88
2023/07/18 00:36:10;;;;;;;0.00;0.00;;;12.50;99.90;;;;;;5033890;28;20107;-88
2023/07/18 00:38:36;;;;;;;0.00;0.00;;;;;;;;;;5028643;28;20088;-88
2023/07/18 00:41:01;;;;;;;0.00;0.00;;;12.40;99.90;;;;;;5032057;28;20120;-88
2023/07/18 00:43:32;;;;;;;0.00;0.00;;;12.40;99.90;;;;;;5030432;28;20104;-90
2023/07/18 00:45:57;;;;;;;0.00;0.00;;;12.30;99.90;;;;;;5031511;28;20098;-88
2023/07/18 00:48:23;;;;;;;0.00;0.00;;;;;;;;;;5029832;28;20033;-88
2023/07/18 00:50:49;;;;;;;0.00;0.00;;;12.30;99.90;;;;;;5029884;28;20037;-88
2023/07/18 00:53:15;;;;;;;0.00;0.00;;;;;;;;;;5034506;28;20033;-88
2023/07/18 00:55:41;;;;;;;0.00;0.00;;;12.20;99.90;;;;;;5034411;28;20107;-88
2023/07/18 00:58:08;;;;;;;0.00;0.00;;;12.20;99.90;;;;;;5035437;28;20017;-89
2023/07/18 01:00:33;;;;;;;0.00;0.00;;;12.20;99.90;;;;;;5030080;28;20033;-92
2023/07/18 01:02:59;;;;;;;0.00;0.00;;;12.30;99.90;;;;;;5030754;28;20490;-88
2023/07/18 01:05:25;;;;;;;0.00;0.00;;;;;;;;;;5036453;28;20025;-88
2023/07/18 01:07:51;;;;;;;0.00;0.00;;;12.40;99.90;;;;;;5036047;28;20474;-88
2023/07/18 01:10:17;;;;;;;0.00;0.00;;;;;;;;;;5033999;28;20033;-88
2023/07/18 01:12:43;;;;;;;0.00;0.00;;;;;;;;;;5033028;28;20486;-89
2023/07/18 01:15:12;;;;;;;0.00;0.00;;;12.30;99.90;;;;;;5042188;28;20021;-89
2023/07/18 01:17:45;;;;;;;0.00;0.00;;;12.40;99.90;;;;;;5031461;28;20021;-87
2023/07/18 01:20:18;;;;;;;0.00;0.00;;;12.30;99.90;;;;;;5038489;28;20017;-88
2023/07/18 01:22:55;;;;;;;0.00;0.00;;;12.40;99.90;;;;;;5034746;28;20068;-87
2023/07/18 01:25:21;;;;;;;0.00;0.00;;;;;;;;;;5032097;28;20044;-89
2023/07/18 01:27:49;;;;;;;0.00;0.00;;;12.40;99.90;;;;;;5040316;28;20060;-88
2023/07/18 01:30:16;;;;;;;0.00;0.00;;;12.30;99.90;;;;;;5036708;28;20120;-89
2023/07/18 01:32:42;;;;;;;0.00;0.00;;;12.20;99.90;;;;;;5030746;28;20025;-87
2023/07/18 01:35:08;;;;;;;0.00;0.00;;;12.20;99.90;;;;;;5027056;28;20025;-89
2023/07/18 01:37:36;;;;;;;0.00;0.00;;;12.30;99.90;;;;;;5030824;28;20608;-90
2023/07/18 01:40:08;;;;;;;0.00;0.00;;;12.20;99.90;;;;;;5027099;28;20036;-89
2023/07/18 01:42:34;;;;;;;0.00;0.00;;;12.30;99.90;;;;;;5045184;28;20120;-89
2023/07/18 01:44:59;;;;;;;0.00;0.00;;;12.40;99.90;;;;;;5028167;28;20120;-87
2023/07/18 01:47:25;;;;;;;0.00;0.00;;;12.60;99.90;;;;;;5028321;28;20402;-86
2023/07/18 01:49:51;;;;;;;0.00;0.00;;;;;;;;;;5032125;28;20042;-90
2023/07/18 01:52:17;;;;;;;0.00;0.00;;;;;;;;;;5026617;28;20026;-89
2023/07/18 01:54:42;;;;;;;0.00;0.00;;;12.30;99.90;;;;;;5036560;28;20026;-89
2023/07/18 01:57:08;;;;;;;0.00;0.00;;;;;;;;;;5028889;28;20075;-87
2023/07/18 01:59:34;;;;;;;0.00;0.00;;;12.20;99.90;;;;;;5048146;28;20053;-88
2023/07/18 02:02:02;;;;;;;0.00;0.00;;;12.10;99.90;;;;;;5029273;28;20122;-90
2023/07/18 02:04:28;;;;;;;0.00;0.00;;;12.00;99.90;;;;;;5044209;28;20033;-88
2023/07/18 02:06:54;;;;;;;0.00;0.00;;;;;;;;;;5031103;28;20025;-89
2023/07/18 02:09:20;;;;;;;0.00;0.00;;;;;;;;;;5028383;28;20514;-89
2023/07/18 02:11:46;;;;;;;0.00;0.00;;;;;;;;;;5031174;28;20075;-87
2023/07/18 02:14:12;;;;;;;0.00;0.00;;;11.80;99.90;;;;;;5030405;28;20052;-87
2023/07/18 02:16:38;;;;;;;0.00;0.00;;;;;;;;;;5030195;28;20104;-89
2023/07/18 02:19:03;;;;;;;0.00;0.00;;;11.80;99.90;;;;;;5048106;28;20029;-89
2023/07/18 02:21:29;;;;;;;0.00;0.00;;;;;;;;;;5031604;28;20031;-88
2023/07/18 02:23:55;;;;;;;0.00;0.00;;;11.80;99.90;;;;;;5034427;28;20039;-88
2023/07/18 02:26:20;;;;;;;0.00;0.00;;;11.90;99.90;;;;;;5034330;28;20500;-88
2023/07/18 02:28:46;;;;;;;0.00;0.00;;;11.90;99.90;;;;;;5029036;28;20040;-89
2023/07/18 02:31:12;;;;;;;0.00;0.00;;;11.80;99.90;;;;;;5031237;28;20029;-89
2023/07/18 02:33:38;;;;;;;0.00;0.00;;;11.80;99.90;;;;;;5031265;28;20040;-89
2023/07/18 02:36:06;;;;;;;0.00;0.00;;;11.80;99.90;;;;;;5028039;28;20036;-90
2023/07/18 02:38:31;;;;;;;0.00;0.00;;;11.70;99.90;;;;;;5030899;28;20037;-88
2023/07/18 02:40:57;;;;;;;0.00;0.00;;;;;;;;;;5030841;28;20021;-87
2023/07/18 02:43:23;;;;;;;0.00;0.00;;;11.90;99.90;;;;;;5028458;28;20029;-88
2023/07/18 02:45:48;;;;;;;0.00;0.00;;;11.80;99.90;;;;;;5028306;28;20123;-90
2023/07/18 02:48:14;;;;;;;0.00;0.00;;;;;;;;;;5031648;28;20059;-89
2023/07/18 02:50:40;;;;;;;0.00;0.00;;;11.80;99.90;;;;;;5042696;28;20033;-88
2023/07/18 02:53:08;;;;;;;0.00;0.00;;;;;;;;;;5029663;28;20039;-87
2023/07/18 02:55:34;;;;;;;0.00;0.00;;;;;;;;;;5044319;28;20482;-90
2023/07/18 02:58:00;;;;;;;0.00;0.00;;;;;;;;;;5026534;28;20079;-91
2023/07/18 03:00:26;;;;;;;0.00;0.00;;;11.80;99.90;;;;;;5032214;28;20082;-89
2023/07/18 03:02:52;;;;;;;0.00;0.00;;;11.80;99.90;;;;;;5024863;28;20030;-88
2023/07/18 03:05:19;;;;;;;0.00;0.00;;;11.70;99.90;;;;;;5026133;28;20456;-89
2023/07/18 03:07:46;;;;;;;0.00;0.00;;;11.80;99.90;;;;;;5034634;28;20068;-89
2023/07/18 03:10:12;;;;;;;0.00;0.00;;;11.90;99.90;;;;;;5041444;28;20065;-89
2023/07/18 03:12:40;;;;;;;0.00;0.00;;;;;;;;;;5030817;28;20037;-90
2023/07/18 03:15:10;;;;;;;0.00;0.00;;;11.90;99.90;;;;;;5031944;28;20036;-89
2023/07/18 03:17:36;;;;;;;0.00;0.00;;;12.00;99.90;;;;;;5041298;28;20963;-90
2023/07/18 03:20:19;;;;;;;0.00;0.00;;;12.10;99.90;;;;;;5034138;28;20029;-90
2023/07/18 03:22:48;;;;;;;0.00;0.00;;;12.10;99.90;;;;;;5040232;28;20036;-90
2023/07/18 03:25:14;;;;;;;0.00;0.00;;;12.10;99.90;;;;;;5034479;28;20025;-89
2023/07/18 03:27:40;;;;;;;0.00;0.00;;;12.10;99.90;;;;;;5033159;28;20087;-89
2023/07/18 03:30:10;;;;;;;0.00;0.00;;;12.10;99.90;;;;;;5027648;28;20398;-87
2023/07/18 03:32:36;;;;;;;0.00;0.00;;;12.20;99.90;;;;;;5030106;28;20030;-89
2023/07/18 03:35:02;;;;;;;0.00;0.00;;;;;;;;;;5041609;28;20061;-87
2023/07/18 03:37:28;;;;;;;0.00;0.00;;;12.20;99.90;;;;;;5034177;28;20025;-88
2023/07/18 03:39:54;;;;;;;0.00;0.00;;;;;;;;;;5034513;28;20044;-88
2023/07/18 03:42:21;;;;;;;0.00;0.00;;;;;;;;;;5038947;28;20032;-87
2023/07/18 03:44:46;;;;;;;0.00;0.00;;;12.10;99.90;;;;;;5031699;28;20029;-90
2023/07/18 03:47:12;;;;;;;0.00;0.00;;;12.10;99.90;;;;;;5034872;28;20524;-89
2023/07/18 03:49:38;;;;;;;0.00;0.00;;;;;;;;;;5034380;28;20508;-90
2023/07/18 03:52:05;;;;;;;0.00;0.00;;;12.10;99.90;;;;;;5035434;28;20033;-90
2023/07/18 03:54:32;;;;;;;0.00;0.00;;;12.10;99.90;;;;;;5034130;28;20116;-87
2023/07/18 03:56:58;;;;;;;0.00;0.00;;;12.10;99.90;;;;;;5035426;28;20032;-89
2023/07/18 03:59:23;;;;;;;0.00;0.00;;;12.10;99.90;;;;;;5038843;28;20040;-88
2023/07/18 04:01:49;;;;;;;0.10;0.10;;;;;;;;;;5032181;28;20030;-89
2023/07/18 04:04:15;;;;;;;0.00;0.00;;;;;;;;;;5035489;28;20025;-89
2023/07/18 04:06:43;;;;;;;0.00;0.00;;;12.10;99.90;;;;;;5034206;28;20079;-87
2023/07/18 04:09:09;;;;;;;0.00;0.00;;;12.10;99.90;;;;;;5039313;28;20039;-89
2023/07/18 04:11:35;;;;;;;0.00;0.00;;;;;;;;;;5037940;28;20397;-89
2023/07/18 04:14:01;;;;;;;0.00;0.00;;;;;;;;;;5031503;28;20063;-86
2023/07/18 04:16:27;;;;;;;0.00;0.00;;;;;;;;;;5048147;28;20029;-89
2023/07/18 04:18:53;;;;;;;0.00;0.00;;;12.20;99.90;;;;;;5034385;28;20033;-89
2023/07/18 04:21:18;;;;;;;0.00;0.00;;;12.30;99.90;;;;;;5029808;28;20032;-88
2023/07/18 04:23:44;;;;;;;0.00;0.00;;;;;;;;;;5031880;28;20029;-89
2023/07/18 04:26:12;;;;;;;0.00;0.00;;;;;;;;;;5032859;28;20037;-89
2023/07/18 04:28:38;;;;;;;0.00;0.00;;;12.30;99.90;;;;;;5027633;28;20040;-90
2023/07/18 04:31:05;;;;;;;0.00;0.00;;;12.30;99.90;;;;;;5033598;28;20405;-88
2023/07/18 04:33:36;;;;;;;0.00;0.00;;;12.30;99.90;;;;;;5032743;28;20079;-89
2023/07/18 04:36:02;;;;;;;0.00;0.00;;;12.40;99.90;;;;;;5028668;28;20032;-85
2023/07/18 04:38:28;;;;;;;0.00;0.00;;;12.50;99.90;;;;;;5027672;28;20486;-85
2023/07/18 04:40:54;;;;;;;0.00;0.00;;;12.60;99.90;;;;;;5030971;28;20029;-88
2023/07/18 04:43:19;;;;;;;0.00;0.00;;;12.60;99.90;;;;;;5029309;28;20028;-89
2023/07/18 04:45:47;;;;;;;0.00;0.00;;;12.80;99.90;;;;;;5032592;28;20029;-88
2023/07/18 04:48:18;;;;;;;0.00;0.00;;;12.80;99.90;;;;;;5035271;28;20055;-86
2023/07/18 04:50:46;;;;;;;0.00;0.00;;;12.90;99.90;;;;;;5029684;28;20030;-90
2023/07/18 04:53:12;;;;;;;0.00;0.00;;;12.90;99.90;;;;;;5031040;28;20386;-89
2023/07/18 04:55:38;;;;;;;0.00;0.00;;;13.00;99.90;;;;;;5032076;28;20029;-89
2023/07/18 04:58:06;;;;;;;0.00;0.00;;;12.90;99.90;;;;;;5047023;28;20032;-89
2023/07/18 05:00:32;;;;;;;0.00;0.00;;;13.00;99.90;;;;;;5034586;28;20044;-89
2023/07/18 05:02:58;;;;;;;0.00;0.00;;;13.00;99.90;;;;;;5035335;28;20025;-88
2023/07/18 05:05:25;;;;;;;0.00;0.00;;;13.00;99.90;;;;;;5031198;28;20029;-89
2023/07/18 05:07:51;;;;;;;0.00;0.00;;;13.10;99.90;;;;;;5028683;28;20036;-88
2023/07/18 05:10:16;;;;;;;0.00;0.00;;;13.10;99.90;;;;;;5040513;28;20398;-89
2023/07/18 05:12:42;;;;;;;0.00;0.00;;;13.10;99.90;;;;;;5031397;28;20469;-90
2023/07/18 05:15:08;;;;;;;0.00;0.00;;;13.10;99.90;;;;;;5031788;28;20386;-87
2023/07/18 05:17:33;;;;;;;0.00;0.00;;;13.10;99.90;;;;;;5029367;28;20486;-89
2023/07/18 05:19:59;;;;;;;0.00;0.00;;;13.20;99.90;;;;;;5033300;28;20021;-90
2023/07/18 05:22:25;;;;;;;0.00;0.00;;;13.30;99.90;;;;;;5053969;28;20025;-89
2023/07/18 05:24:50;;;;;;;0.00;0.00;;;13.30;99.90;;;;;;5039548;28;20025;-89
2023/07/18 05:27:17;;;;;;;0.00;0.00;;;;;;;;;;5028227;28;20029;-88
2023/07/18 05:29:42;;;;;;;0.00;0.00;;;13.40;99.90;;;;;;5056361;28;20028;-88
2023/07/18 05:32:08;;;;;;;0.00;0.00;;;;;;;;;;5033458;28;20112;-88
2023/07/18 05:34:34;;;;;;;0.00;0.00;;;;;;;;;;5043121;28;20024;-86
2023/07/18 05:37:00;;;;;;;0.00;0.00;;;13.60;99.90;;;;;;5033418;28;20090;-89
2023/07/18 05:39:27;;;;;;;0.00;0.00;;;;;;;;;;5027402;28;20077;-87
2023/07/18 05:41:53;;;;;;;0.00;0.00;;;;;;;;;;5031663;28;20049;-90
2023/07/18 05:44:19;;;;;;;0.00;0.00;;;;;;;;;;5033777;28;20057;-89
2023/07/18 05:46:45;;;;;;;0.00;0.00;;;14.00;99.90;;;;;;5031943;28;20112;-87
2023/07/18 05:49:11;;;;;;;0.00;0.00;;;;;;;;;;5035898;28;20063;-85
2023/07/18 05:51:37;;;;;;;0.00;0.00;;;;;;;;;;5031356;28;20033;-89
2023/07/18 05:54:06;;;;;;;0.00;0.00;;;;;;;;;;5033106;28;20036;-87
2023/07/18 05:56:32;;;;;;;0.00;0.00;;;14.30;99.90;;;;;;5032300;28;20044;-87
2023/07/18 05:59:00;;;;;;;0.00;0.00;;;14.30;99.90;;;;;;5032985;28;20082;-84
2023/07/18 06:01:25;;;;;;;0.00;0.00;;;14.40;99.90;;;;;;5032918;28;20394;-87
2023/07/18 06:03:51;;;;;;;0.00;0.00;;;;;;;;;;5031500;28;20052;-87
2023/07/18 06:06:17;;;;;;;0.00;0.00;;;14.50;99.90;;;;;;5032063;28;20032;-89
2023/07/18 06:08:42;;;;;;;0.00;0.00;;;14.50;99.90;;;;;;5031024;28;20036;-90
2023/07/18 06:11:08;;;;;;;0.00;0.00;;;14.60;99.90;;;;;;5024876;28;20120;-87
2023/07/18 06:13:33;;;;;;;0.00;0.00;;;14.60;99.90;;;;;;5033066;28;20105;-87
2023/07/18 06:15:59;;;;;;;0.00;0.00;;;14.70;99.90;;;;;;5032750;28;20072;-91
2023/07/18 06:18:25;;;;;;;0.00;0.00;;;;;;;;;;5032539;28;20025;-88
2023/07/18 06:20:51;;;;;;;0.00;0.00;;;;;;;;;;5046943;28;20049;-88
2023/07/18 06:23:17;;;;;;;0.00;0.00;;;;;;;;;;5050117;28;20033;-88
2023/07/18 06:25:42;;;;;;;0.00;0.00;;;14.90;99.90;;;;;;5032219;28;20713;-86
2023/07/18 06:28:08;;;;;;;0.00;0.00;;;;;;;;;;5029448;28;20022;-89
2023/07/18 06:30:35;;;;;;;0.00;0.00;;;;;;;;;;5028452;28;20120;-86
2023/07/18 06:33:00;;;;;;;0.00;0.00;;;15.10;99.90;;;;;;5042321;28;20025;-88
2023/07/18 06:35:26;;;;;;;0.00;0.00;;;;;;;;;;5033400;28;20375;-88
2023/07/18 06:37:52;;;;;;;0.00;0.00;;;15.20;99.90;;;;;;5030019;28;20033;-89
2023/07/18 06:40:18;;;;;;;0.00;0.00;;;;;;;;;;5036924;28;20124;-88
2023/07/18 06:42:44;;;;;;;0.00;0.00;;;15.40;99.90;;;;;;5046432;28;20025;-90
2023/07/18 06:45:11;;;;;;;0.00;0.00;;;;;;;;;;5031760;28;20033;-90
2023/07/18 06:47:36;;;;;;;0.00;0.00;;;15.60;99.90;;;;;;5032769;28;20090;-88
2023/07/18 06:50:02;;;;;;;0.00;0.00;;;15.60;99.90;;;;;;5032050;28;20017;-88
2023/07/18 06:52:28;;;;;;;0.00;0.00;;;;;;;;;;5029003;28;20024;-88
2023/07/18 06:54:54;;;;;;;0.00;0.00;;;15.70;99.90;;;;;;5044746;28;20482;-88
2023/07/18 06:57:20;;;;;;;0.00;0.00;;;15.70;99.90;;;;;;5029560;28;20021;-89
2023/07/18 06:59:46;;;;;;;0.00;0.00;;;15.90;99.90;;;;;;5030210;28;20028;-89
2023/07/18 07:02:12;;;;;;;0.00;0.00;;;;;;;;;;5032410;28;20033;-90
2023/07/18 07:04:39;;;;;;;0.00;0.00;;;15.90;99.90;;;;;;5035885;28;20036;-88
2023/07/18 07:07:07;;;;;;;0.00;0.00;;;15.90;99.90;;;;;;5036310;28;20025;-89
2023/07/18 07:09:33;;;;;;;0.00;0.00;;;16.00;99.90;;;;;;5031369;28;20036;-90
2023/07/18 07:12:00;;;;;;;0.00;0.00;;;16.10;99.90;;;;;;5030444;28;20032;-88
2023/07/18 07:14:25;;;;;;;0.00;0.00;;;16.20;99.90;;;;;;5036780;28;20028;-88
2023/07/18 07:16:51;;;;;;;0.00;0.00;;;;;;;;;;5045220;28;20080;-88
2023/07/18 07:19:17;;;;;;;0.00;0.00;;;16.30;99.90;;;;;;5029386;28;20089;-83
2023/07/18 07:21:43;;;;;;;0.00;0.00;;;16.40;99.90;;;;;;5030284;28;20529;-85
2023/07/18 07:24:09;;;;;;;0.00;0.00;;;16.40;99.90;;;;;;5025734;28;20044;-84
2023/07/18 07:26:37;;;;;;;0.00;0.00;;;16.40;99.90;;;;;;5028756;28;20028;-86
2023/07/18 07:29:03;;;;;;;0.00;0.00;;;17.00;99.90;;;;;;5011111;28;20442;-88
2023/07/18 07:31:28;;;;;;;0.00;0.00;;;16.70;99.90;;;;;;5047737;28;20021;-87
2023/07/18 07:33:54;;;;;;;0.00;0.00;;;16.70;99.90;;;;;;5030434;28;20080;-88
2023/07/18 07:36:20;;;;;;;0.00;0.00;;;16.70;99.90;;;;;;5042273;28;20393;-90
2023/07/18 07:38:46;;;;;;;0.00;0.00;;;16.80;99.90;;;;;;5033294;28;20102;-88
2023/07/18 07:41:11;;;;;;;0.00;0.00;;;16.90;99.90;;;;;;5047067;28;20033;-91
2023/07/18 07:43:37;;;;;;;0.00;0.00;;;;;;;;;;5035820;28;20074;-85
2023/07/18 07:46:04;;;;;;;0.00;0.00;;;16.80;99.90;;;;;;5045740;28;20117;-88
2023/07/18 07:48:29;;;;;;;0.00;0.00;;;16.90;99.90;;;;;;5035945;28;20191;-87
2023/07/18 07:50:55;;;;;;;0.00;0.00;;;;;;;;;;5027888;28;20140;-89
2023/07/18 07:53:21;;;;;;;0.00;0.00;;;;;;;;;;5030911;28;20464;-89
2023/07/18 07:55:47;;;;;;;0.00;0.00;;;;;;;;;;5037285;28;20596;-87
2023/07/18 07:58:13;;;;;;;0.00;0.00;;;;;;;;;;5026804;28;20056;-85
2023/07/18 08:00:39;;;;;;;0.00;0.00;;;17.10;99.90;;;;;;5046568;28;20109;-88
2023/07/18 08:03:04;;;;;;;0.00;0.00;;;17.30;99.90;;;;;;5029635;28;20124;-90
2023/07/18 08:05:30;;;;;;;0.00;0.00;;;;;;;;;;5030490;28;20476;-87
2023/07/18 08:07:56;;;;;;;0.00;0.00;;;;;;;;;;5028831;28;20037;-90
2023/07/18 08:10:22;;;;;;;0.00;0.00;;;;;;;;;;5026061;28;20029;-86
2023/07/18 08:12:48;;;;;;;0.00;0.00;;;;;;;;;;5038227;28;20029;-90
2023/07/18 08:15:14;;;;;;;0.00;0.00;;;17.60;99.90;;;;;;5046264;28;20025;-89
2023/07/18 08:17:40;;;;;;;0.00;0.00;;;;;;;;;;5033655;28;20032;-89
2023/07/18 08:20:08;;;;;;;0.00;0.00;;;17.80;99.90;;;;;;5032601;28;20123;-89
2023/07/18 08:22:33;;;;;;;0.00;0.00;;;17.80;99.90;;;;;;5031852;28;20060;-89
2023/07/18 08:24:59;;;;;;;0.00;0.00;;;17.90;99.90;;;;;;5024308;28;20500;-88
2023/07/18 08:27:25;;;;;;;0.00;0.00;;;18.20;99.90;;;;;;5031157;28;20029;-87
2023/07/18 08:29:51;;;;;;;0.00;0.00;;;;;;;;;;5031386;28;20025;-89
2023/07/18 08:32:16;;;;;;;0.00;0.00;;;18.30;99.90;;;;;;5028844;28;20036;-90
2023/07/18 08:34:42;;;;;;;0.00;0.00;;;18.20;99.90;;;;;;5030441;28;20025;-89
2023/07/18 08:37:09;;;;;;;0.00;0.00;;;18.20;99.90;;;;;;5033445;28;20020;-91
2023/07/18 08:39:36;;;;;;;0.00;0.00;;;18.20;99.90;;;;;;5029553;28;20021;-88
2023/07/18 08:42:05;;;;;;;0.00;0.00;;;18.80;99.90;;;;;;5042848;28;20072;-90
2023/07/18 08:44:32;;;;;;;0.00;0.00;;;18.40;99.90;;;;;;5022328;28;20467;-90
2023/07/18 08:47:00;;;;;;;0.00;0.00;;;18.40;99.90;;;;;;5030075;28;20036;-90
2023/07/18 08:49:28;;;;;;;0.00;0.00;;;18.60;99.90;;;;;;5032732;28;20025;-88
2023/07/18 08:51:54;;;;;;;0.00;0.00;;;19.50;99.90;;;;;;5026538;28;20060;-86
2023/07/18 08:54:19;;;;;;;0.00;0.00;;;18.70;99.90;;;;;;5029603;28;20502;-84
2023/07/18 08:56:45;;;;;;;0.00;0.00;;;18.70;99.90;;;;;;5030766;28;20032;-87
2023/07/18 08:59:11;;;;;;;0.00;0.00;;;;;;;;;;5026183;28;20021;-90
2023/07/18 09:01:46;;;;;;;0.00;0.00;;;18.90;99.90;;;;;;5029258;28;20052;-90
2023/07/18 09:04:12;;;;;;;0.00;0.00;;;19.40;99.90;;;;;;5023910;28;20025;-89
2023/07/18 09:06:47;;;;;;;0.00;0.00;;;19.00;99.90;;;;;;5034166;28;20036;-90
2023/07/18 09:09:21;;;;;;;0.00;0.00;;;19.00;99.90;;;;;;5045078;28;20568;-91
2023/07/18 09:12:04;;;;;;;0.00;0.00;;;19.90;99.90;;;;;;5030435;28;20076;-88
2023/07/18 09:14:34;;;;;;;0.00;0.00;;;19.20;99.90;;;;;;5043597;28;20029;-87
2023/07/18 09:17:01;;;;;;;;;;;19.60;99.90;;;;;;5025965;28;20047;-88
2023/07/18 09:19:37;;;;;;;0.00;0.00;;;19.60;99.90;;;;;;5045516;28;19942;-87
2023/07/18 09:22:08;;;;;;;0.00;0.00;;;19.90;99.90;;;;;;5029209;28;20033;-89
2023/07/18 09:24:35;;;;;;;0.00;0.00;;;21.60;99.90;;;;;;5027685;28;20037;-87
2023/07/18 09:27:06;;;;;;;0.00;0.00;;;21.90;99.90;;;;;;5029006;28;20056;-87
2023/07/18 09:29:32;;;;;;;0.00;0.00;;;20.50;99.90;;;;;;5022035;28;20021;-86
2023/07/18 09:31:58;;;;;;;0.00;0.00;;;;;;;;;;5029615;28;20525;-89
2023/07/18 09:34:26;;;;;;;0.00;0.00;;;20.90;99.90;;;;;;5046209;28;20032;-87
2023/07/18 09:36:59;;;;;;;0.00;0.00;;;20.60;99.90;;;;;;5041193;28;20086;-88
2023/07/18 09:39:26;;;;;;;0.00;0.00;;;20.70;99.90;;;;;;5030564;28;20094;-89
2023/07/18 09:41:53;;;;;;;0.00;0.00;;;20.50;99.90;;;;;;5024269;28;20029;-86
2023/07/18 09:44:20;;;;;;;0.00;0.00;;;20.50;99.90;;;;;;5028337;28;20489;-89
2023/07/18 09:46:45;;;;;;;0.00;0.00;;;21.20;99.90;;;;;;5026935;28;20063;-88
2023/07/18 09:49:11;;;;;;;0.00;0.00;;;;;;;;;;5034747;28;20445;-89
2023/07/18 09:51:38;;;;;;;0.00;0.00;;;21.10;99.90;;;;;;5034819;28;20397;-88
2023/07/18 09:54:06;;;;;;;0.00;0.00;;;23.10;99.90;;;;;;5029001;28;20118;-89
2023/07/18 09:56:39;;;;;;;0.00;0.00;;;21.10;99.90;;;;;;5032765;28;20017;-90
2023/07/18 09:59:08;;;;;;;0.00;0.00;;;21.50;99.90;;;;;;5033358;28;20025;-88
2023/07/18 10:01:34;;;;;;;0.00;0.00;;;20.70;99.90;;;;;;5044135;28;20017;-88
2023/07/18 10:04:00;;;;;;;0.00;0.00;;;20.70;99.90;;;;;;5026374;28;20026;-90
2023/07/18 10:06:26;;;;;;;0.00;0.00;;;20.70;99.90;;;;;;5027992;28;20051;-86
2023/07/18 10:08:53;;;;;;;0.00;0.00;;;20.70;99.90;;;;;;5045656;28;20104;-89
2023/07/18 10:11:19;;;;;;;0.00;0.00;;;20.90;99.90;;;;;;5036766;28;20065;-88
2023/07/18 10:14:07;;;;;;;0.00;0.00;;;21.00;99.90;;;;;;5033197;28;20060;-91
2023/07/18 10:16:35;;;;;;;0.00;0.00;;;21.50;99.90;;;;;;5053518;28;20032;-90
2023/07/18 10:19:17;;;;;;;0.00;0.00;;;21.50;99.90;;;;;;5041572;28;20025;-91
2023/07/18 10:21:46;;;;;;;0.00;0.00;;;21.80;99.90;;;;;;5040520;28;20368;-90
2023/07/18 10:24:21;;;;;;;0.00;0.00;;;21.80;99.90;;;;;;5033668;28;20154;-90
2023/07/18 10:26:48;;;;;;;0.00;0.00;;;21.80;99.70;;;;;;5035302;28;20072;-89
2023/07/18 10:29:14;;;;;;;0.00;0.00;;;21.70;99.80;;;;;;5037774;28;20051;-88
2023/07/18 10:31:40;;;;;;;0.00;0.00;;;22.10;98.50;;;;;;5030118;28;20179;-89
2023/07/18 10:34:06;;;;;;;0.00;0.00;;;;;;;;;;5037230;28;20127;-90
2023/07/18 10:36:35;;;;;;;0.00;0.00;;;22.20;99.90;;;;;;5036996;28;20575;-89
2023/07/18 10:39:06;;;;;;;0.00;0.00;;;22.20;99.90;;;;;;5037774;28;20025;-87
2023/07/18 10:41:31;;;;;;;0.00;0.00;;;22.70;96.50;;;;;;5036918;28;20037;-89
2023/07/18 10:43:57;;;;;;;0.00;0.00;;;22.60;96.60;;;;;;5034609;28;20501;-89
2023/07/18 10:46:22;;;;;;;0.00;0.00;;;22.90;98.60;;;;;;5034330;28;20117;-88
2023/07/18 10:48:51;;;;;;;0.00;0.00;;;24.00;98.70;;;;;;5035238;28;20118;-89
2023/07/18 10:51:17;;;;;;;0.00;0.00;;;25.40;97.60;;;;;;5039844;28;20079;-89
2023/07/18 10:53:44;;;;;;;0.00;0.00;;;23.00;95.70;;;;;;5036172;28;20082;-90
2023/07/18 10:56:22;;;;;;;0.00;0.00;;;23.40;95.60;;;;;;5055345;28;20044;-90
2023/07/18 10:58:47;;;;;;;0.00;0.00;;;24.10;94.70;;;;;;5044577;28;20470;-89
2023/07/18 11:01:13;;;;;;;0.00;0.00;;;;;;;;;;5043654;28;20070;-89
2023/07/18 11:03:45;;;;;;;0.00;0.00;;;23.60;96.60;;;;;;5044200;28;20040;-89
2023/07/18 11:06:11;;;;;;;0.00;0.00;;;24.00;94.40;;;;;;5034786;28;20052;-90
2023/07/18 11:08:37;;;;;;;0.00;0.00;;;24.00;94.80;;;;;;5040288;28;20066;-89
2023/07/18 11:11:04;;;;;;;0.00;0.00;;;25.40;94.00;;;;;;5044182;28;20025;-89
2023/07/18 11:13:35;;;;;;;0.00;0.00;;;24.40;95.80;;;;;;5041304;28;20021;-89
2023/07/18 11:16:09;;;;;;;0.00;0.00;;;24.60;95.30;;;;;;5045490;28;20036;-90
2023/07/18 11:18:41;;;;;;;0.00;0.00;;;24.50;94.40;;;;;;5034600;28;20464;-91
2023/07/18 11:21:07;;;;;;;0.00;0.00;;;25.20;94.80;;;;;;5036276;28;20017;-88
2023/07/18 11:23:34;;;;;;;0.00;0.00;;;25.70;95.00;;;;;;5038455;28;20243;-90
2023/07/18 11:26:12;;;;;;;0.00;0.00;;;24.20;94.20;;;;;;5052402;28;20026;-89
2023/07/18 11:28:39;;;;;;;0.00;0.00;;;24.20;94.70;;;;;;5046295;28;20052;-88
2023/07/18 11:31:05;;;;;;;0.00;0.00;;;24.50;93.70;;;;;;5038710;28;20037;-91
2023/07/18 11:33:34;;;;;;;0.00;0.00;;;24.70;92.70;;;;;;5037731;28;20044;-90
2023/07/18 11:36:00;;;;;;;0.00;0.00;;;;;;;;;;5035586;28;20059;-89
2023/07/18 11:38:29;;;;;;;0.00;0.00;;;24.60;93.60;;;;;;5044110;28;20023;-90
2023/07/18 11:40:55;;;;;;;0.00;0.00;;;;;;;;;;5039134;28;20025;-91
2023/07/18 11:43:21;;;;;;;0.00;0.00;;;;;;;;;;5039772;28;20044;-90
2023/07/18 11:45:47;;;;;;;0.00;0.00;;;24.50;94.10;;;;;;5037732;28;20035;-90
2023/07/18 11:48:14;;;;;;;0.00;0.00;;;;;;;;;;5035347;28;20564;-90
2023/07/18 11:50:45;;;;;;;0.00;0.00;;;25.10;91.50;;;;;;5038814;28;20107;-91
2023/07/18 11:53:11;;;;;;;0.00;0.00;;;;;;;;;;5030707;28;20025;-92
2023/07/18 11:55:37;;;;;;;0.00;0.00;;;;;;;;;;5050578;28;20071;-91
2023/07/18 11:58:07;;;;;;;0.00;0.00;;;;;;;;;;5042410;28;20032;-91
2023/07/18 12:00:35;;;;;;;0.00;0.00;;;25.20;93.50;;;;;;5032955;28;20021;-89
2023/07/18 12:03:01;;;;;;;0.00;0.00;;;;;;;;;;5035951;28;20057;-90
2023/07/18 12:05:28;;;;;;;0.00;0.00;;;25.30;92.30;;;;;;5038061;28;20039;-90
2023/07/18 12:07:54;;;;;;;0.00;0.00;;;;;;;;;;5046698;28;20040;-89
2023/07/18 12:10:21;;;;;;;0.00;0.00;;;25.20;90.10;;;;;;5035607;28;20048;-91
2023/07/18 12:12:47;;;;;;;0.00;0.00;;;;;;;;;;5035197;28;20402;-91
2023/07/18 12:15:13;;;;;;;0.00;0.00;;;;;;;;;;5032253;28;20028;-90
2023/07/18 12:17:39;;;;;;;0.00;0.00;;;25.30;91.50;;;;;;5042186;28;20614;-91
2023/07/18 12:20:06;;;;;;;0.00;0.00;;;25.00;90.80;;;;;;5044411;28;20025;-90
2023/07/18 12:22:32;;;;;;;0.00;0.00;;;24.90;92.30;;;;;;5047139;28;20029;-91
2023/07/18 12:25:01;;;;;;;0.00;0.00;;;;;;;;;;5037494;28;20032;-90
2023/07/18 12:27:27;;;;;;;0.00;0.00;;;;;;;;;;5042518;28;20025;-90
2023/07/18 12:29:53;;;;;;;0.00;0.00;;;;;;;;;;5035290;28;20456;-90
2023/07/18 12:32:18;;;;;;;0.00;0.00;;;25.00;91.80;;;;;;5045552;28;20040;-90
2023/07/18 12:34:44;;;;;;;0.00;0.00;;;;;;;;;;5041085;28;20016;-90
2023/07/18 12:37:10;;;;;;;0.00;0.00;;;25.30;90.50;;;;;;5041060;28;20028;-92
2023/07/18 12:39:35;;;;;;;0.00;0.00;;;25.80;92.70;;;;;;5035162;28;20033;-90
2023/07/18 12:42:01;;;;;;;0.00;0.00;;;24.90;91.90;;;;;;5032926;28;20056;-89
2023/07/18 12:44:56;;;;;;;0.00;0.00;;;24.90;90.20;;;;;;5039277;28;20017;-91
2023/07/18 12:47:22;;;;;;;0.00;0.00;;;;;;;;;;5034120;28;20552;-90
2023/07/18 12:49:48;;;;;;;0.00;0.00;;;;;;;;;;5051692;28;20029;-91
2023/07/18 12:52:14;;;;;;;0.00;0.00;;;;;;;;;;5036380;28;20116;-91
2023/07/18 12:54:40;;;;;;;0.00;0.00;;;;;;;;;;5034736;28;20032;-91
2023/07/18 12:57:06;;;;;;;0.00;0.00;;;;;;;;;;5035568;28;20025;-89
2023/07/18 12:59:31;;;;;;;0.00;0.00;;;24.80;90.90;;;;;;5043669;28;20033;-89
2023/07/18 13:01:58;;;;;;;0.00;0.00;;;24.80;90.10;;;;;;5039525;28;20009;-90
2023/07/18 13:04:24;;;;;;;0.00;0.00;;;24.80;90.40;;;;;;5031054;28;20021;-93
2023/07/18 13:06:49;;;;;;;0.00;0.00;;;24.80;90.40;;;;;;5031722;28;20452;-92
2023/07/18 13:09:15;;;;;;;0.00;0.00;;;25.00;91.00;;;;;;5041598;28;20063;-91
2023/07/18 13:11:41;;;;;;;0.00;0.00;;;24.90;90.20;;;;;;5031567;28;20033;-89
2023/07/18 13:14:07;;;;;;;0.00;0.00;;;;;;;;;;5034667;28;20082;-91
2023/07/18 13:16:33;;;;;;;0.00;0.00;;;24.80;87.60;;;;;;5037470;28;20024;-91